sensor_id;sensor_type;location;lat;lon;timestamp;pressure;altitude;pressure_sealevel;temperature;humidity
66176;BME280;52977;44.816;20.538;2023-09-19T00:01:33;99568.94;;;22.01;69.49
66176;BME280;52977;44.816;20.538;2023-09-19T00:03:59;99581.22;;;22.07;69.50
66176;BME280;52977;44.816;20.538;2023-09-19T00:06:29;99583.56;;;22.09;69.13
66176;BME280;52977;44.816;20.538;2023-09-19T00:08:58;99464.41;;;21.26;68.86
66176;BME280;52977;44.816;20.538;2023-09-19T00:11:28;99567.38;;;21.93;68.89
66176;BME280;52977;44.816;20.538;2023-09-19T00:13:54;99556.63;;;21.98;68.47
66176;BME280;52977;44.816;20.538;2023-09-19T00:16:21;99519.44;;;21.71;67.79
66176;BME280;52977;44.816;20.538;2023-09-19T00:18:47;99560.59;;;21.97;67.93
66176;BME280;52977;44.816;20.538;2023-09-19T00:21:14;99550.69;;;21.96;67.86
66176;BME280;52977;44.816;20.538;2023-09-19T00:23:41;99543.97;;;21.94;67.67
66176;BME280;52977;44.816;20.538;2023-09-19T00:26:07;99564.16;;;22.01;67.23
66176;BME280;52977;44.816;20.538;2023-09-19T00:28:33;99566.94;;;22.01;67.46
66176;BME280;52977;44.816;20.538;2023-09-19T00:31:01;99523.81;;;21.68;67.75
66176;BME280;52977;44.816;20.538;2023-09-19T00:33:28;99556.66;;;21.91;67.53
66176;BME280;52977;44.816;20.538;2023-09-19T00:35:57;99556.28;;;21.82;67.71
66176;BME280;52977;44.816;20.538;2023-09-19T00:38:23;99528.94;;;21.70;67.45
66176;BME280;52977;44.816;20.538;2023-09-19T00:40:54;99557.44;;;21.95;67.48
66176;BME280;52977;44.816;20.538;2023-09-19T00:43:21;99564.19;;;21.94;67.17
66176;BME280;52977;44.816;20.538;2023-09-19T00:45:53;99459.25;;;21.35;67.10
66176;BME280;52977;44.816;20.538;2023-09-19T00:48:21;99536.03;;;21.89;67.21
66176;BME280;52977;44.816;20.538;2023-09-19T00:50:48;99522.22;;;21.74;67.41
66176;BME280;52977;44.816;20.538;2023-09-19T00:53:21;99553.47;;;21.93;67.37
66176;BME280;52977;44.816;20.538;2023-09-19T00:55:49;99482.59;;;21.45;67.38
66176;BME280;52977;44.816;20.538;2023-09-19T00:58:18;99550.31;;;21.91;67.35
66176;BME280;52977;44.816;20.538;2023-09-19T01:00:44;99528.91;;;21.77;67.06
66176;BME280;52977;44.816;20.538;2023-09-19T01:03:11;99548.75;;;21.90;67.25
66176;BME280;52977;44.816;20.538;2023-09-19T01:05:40;99522.56;;;21.83;66.94
66176;BME280;52977;44.816;20.538;2023-09-19T01:08:06;99534.44;;;21.91;67.10
66176;BME280;52977;44.816;20.538;2023-09-19T01:10:33;99522.56;;;21.87;66.76
66176;BME280;52977;44.816;20.538;2023-09-19T01:13:17;99531.63;;;21.95;66.82
66176;BME280;52977;44.816;20.538;2023-09-19T01:16:04;99527.69;;;21.89;66.87
66176;BME280;52977;44.816;20.538;2023-09-19T01:29:44;99521.72;;;21.94;66.40
66176;BME280;52977;44.816;20.538;2023-09-19T01:32:16;99526.88;;;21.92;66.11
66176;BME280;52977;44.816;20.538;2023-09-19T01:34:51;99481.00;;;21.58;65.94
66176;BME280;52977;44.816;20.538;2023-09-19T01:37:20;99524.50;;;21.94;65.67
66176;BME280;52977;44.816;20.538;2023-09-19T01:40:14;99522.13;;;21.92;65.59
66176;BME280;52977;44.816;20.538;2023-09-19T01:42:57;99508.25;;;21.85;65.53
66176;BME280;52977;44.816;20.538;2023-09-19T01:45:37;99513.81;;;21.89;65.40
66176;BME280;52977;44.816;20.538;2023-09-19T01:48:46;99519.00;;;21.87;65.40
66176;BME280;52977;44.816;20.538;2023-09-19T01:51:33;99528.06;;;21.91;64.91
66176;BME280;52977;44.816;20.538;2023-09-19T01:54:03;99520.97;;;21.86;64.73
66176;BME280;52977;44.816;20.538;2023-09-19T01:59:05;99538.41;;;21.90;64.49
66176;BME280;52977;44.816;20.538;2023-09-19T02:01:34;99536.81;;;21.89;64.27
66176;BME280;52977;44.816;20.538;2023-09-19T02:04:02;99533.66;;;21.87;64.62
66176;BME280;52977;44.816;20.538;2023-09-19T02:06:31;99512.66;;;21.75;64.61
66176;BME280;52977;44.816;20.538;2023-09-19T02:08:58;99519.00;;;21.87;64.56
66176;BME280;52977;44.816;20.538;2023-09-19T02:11:25;99527.28;;;21.90;64.42
66176;BME280;52977;44.816;20.538;2023-09-19T02:13:52;99519.00;;;21.87;64.38
66176;BME280;52977;44.816;20.538;2023-09-19T02:16:20;99523.38;;;21.80;64.30
66176;BME280;52977;44.816;20.538;2023-09-19T02:18:51;99527.31;;;21.83;64.06
66176;BME280;52977;44.816;20.538;2023-09-19T02:21:17;99527.69;;;21.89;64.16
66176;BME280;52977;44.816;20.538;2023-09-19T02:23:45;99531.25;;;21.89;63.90
66176;BME280;52977;44.816;20.538;2023-09-19T02:26:13;99530.84;;;21.91;63.57
66176;BME280;52977;44.816;20.538;2023-09-19T02:28:40;99525.69;;;21.89;63.62
66176;BME280;52977;44.816;20.538;2023-09-19T02:31:08;99528.84;;;21.95;63.38
66176;BME280;52977;44.816;20.538;2023-09-19T02:33:34;99516.22;;;21.87;63.17
66176;BME280;52977;44.816;20.538;2023-09-19T02:36:01;99524.91;;;21.92;63.12
66176;BME280;52977;44.816;20.538;2023-09-19T02:38:29;99524.91;;;21.92;63.19
66176;BME280;52977;44.816;20.538;2023-09-19T02:40:56;99510.25;;;21.81;63.45
66176;BME280;52977;44.816;20.538;2023-09-19T02:43:22;99522.50;;;21.91;63.65
66176;BME280;52977;44.816;20.538;2023-09-19T02:45:49;99524.88;;;21.96;64.04
66176;BME280;52977;44.816;20.538;2023-09-19T02:48:20;99523.28;;;21.95;65.21
66176;BME280;52977;44.816;20.538;2023-09-19T02:50:49;99521.72;;;21.90;66.80
66176;BME280;52977;44.816;20.538;2023-09-19T02:53:15;99512.22;;;21.88;68.45
66176;BME280;52977;44.816;20.538;2023-09-19T02:55:41;99517.81;;;21.84;69.38
66176;BME280;52977;44.816;20.538;2023-09-19T02:58:08;99523.78;;;21.79;70.02
66176;BME280;52977;44.816;20.538;2023-09-19T03:00:36;99505.16;;;21.68;70.67
66176;BME280;52977;44.816;20.538;2023-09-19T03:03:02;99528.19;;;21.73;70.75
66176;BME280;52977;44.816;20.538;2023-09-19T03:05:28;99492.94;;;21.41;71.48
66176;BME280;52977;44.816;20.538;2023-09-19T03:07:57;99484.56;;;21.48;72.98
66176;BME280;52977;44.816;20.538;2023-09-19T03:10:26;99499.66;;;21.58;72.23
66176;BME280;52977;44.816;20.538;2023-09-19T03:12:55;99502.84;;;21.53;73.74
66176;BME280;52977;44.816;20.538;2023-09-19T03:15:20;99449.75;;;21.22;73.81
66176;BME280;52977;44.816;20.538;2023-09-19T03:17:49;99477.44;;;21.47;73.92
66176;BME280;52977;44.816;20.538;2023-09-19T03:20:19;99470.69;;;21.44;73.31
66176;BME280;52977;44.816;20.538;2023-09-19T03:22:47;99448.94;;;21.25;73.02
66176;BME280;52977;44.816;20.538;2023-09-19T03:25:14;99453.69;;;21.28;73.47
66176;BME280;52977;44.816;20.538;2023-09-19T03:27:45;99438.25;;;21.27;73.35
66176;BME280;52977;44.816;20.538;2023-09-19T03:30:12;99425.19;;;21.20;72.87
66176;BME280;52977;44.816;20.538;2023-09-19T03:32:44;99431.09;;;21.29;72.60
66176;BME280;52977;44.816;20.538;2023-09-19T03:35:11;99388.41;;;20.83;72.72
66176;BME280;52977;44.816;20.538;2023-09-19T03:37:40;99364.25;;;20.62;72.58
66176;BME280;52977;44.816;20.538;2023-09-19T03:40:11;99446.19;;;21.21;72.79
66176;BME280;52977;44.816;20.538;2023-09-19T03:42:41;99442.22;;;21.15;72.73
66176;BME280;52977;44.816;20.538;2023-09-19T03:45:09;99437.50;;;21.15;72.18
66176;BME280;52977;44.816;20.538;2023-09-19T03:47:41;99450.53;;;21.26;71.63
66176;BME280;52977;44.816;20.538;2023-09-19T03:50:09;99408.63;;;20.77;71.23
66176;BME280;52977;44.816;20.538;2023-09-19T03:52:37;99414.06;;;21.20;71.21
66176;BME280;52977;44.816;20.538;2023-09-19T03:55:03;99388.38;;;20.98;71.34
66176;BME280;52977;44.816;20.538;2023-09-19T03:57:30;99414.50;;;21.11;71.30
66176;BME280;52977;44.816;20.538;2023-09-19T03:59:55;99254.22;;;20.16;71.23
66176;BME280;52977;44.816;20.538;2023-09-19T04:02:21;99396.28;;;21.10;70.98
66176;BME280;52977;44.816;20.538;2023-09-19T04:04:49;99363.84;;;20.75;71.13
66176;BME280;52977;44.816;20.538;2023-09-19T04:07:15;99426.00;;;21.10;71.49
66176;BME280;52977;44.816;20.538;2023-09-19T04:09:41;99415.31;;;21.05;71.19
66176;BME280;52977;44.816;20.538;2023-09-19T04:12:07;99438.25;;;21.23;71.44
66176;BME280;52977;44.816;20.538;2023-09-19T04:14:36;99398.66;;;21.05;70.89
66176;BME280;52977;44.816;20.538;2023-09-19T04:17:02;99440.59;;;21.36;70.47
66176;BME280;52977;44.816;20.538;2023-09-19T04:19:28;99447.72;;;21.33;70.85
66176;BME280;52977;44.816;20.538;2023-09-19T04:21:54;99448.91;;;21.32;70.85
66176;BME280;52977;44.816;20.538;2023-09-19T04:24:20;99433.09;;;21.25;70.94
66176;BME280;52977;44.816;20.538;2023-09-19T04:26:46;99452.09;;;21.34;71.08
66176;BME280;52977;44.816;20.538;2023-09-19T04:29:12;99414.91;;;21.10;71.01
66176;BME280;52977;44.816;20.538;2023-09-19T04:31:40;99447.34;;;21.24;71.35
66176;BME280;52977;44.816;20.538;2023-09-19T04:34:06;99458.88;;;21.29;71.10
66176;BME280;52977;44.816;20.538;2023-09-19T04:36:32;99461.25;;;21.31;70.92
66176;BME280;52977;44.816;20.538;2023-09-19T04:38:57;99464.78;;;21.31;71.02
66176;BME280;52977;44.816;20.538;2023-09-19T04:41:23;99470.72;;;21.37;70.91
66176;BME280;52977;44.816;20.538;2023-09-19T04:43:49;99473.91;;;21.36;70.91
66176;BME280;52977;44.816;20.538;2023-09-19T04:46:16;99426.03;;;20.99;70.91
66176;BME280;52977;44.816;20.538;2023-09-19T04:48:43;99467.19;;;21.22;71.17
66176;BME280;52977;44.816;20.538;2023-09-19T04:51:09;99456.50;;;21.17;71.44
66176;BME280;52977;44.816;20.538;2023-09-19T04:53:36;99473.91;;;21.32;71.32
66176;BME280;52977;44.816;20.538;2023-09-19T04:56:03;99451.75;;;21.10;71.16
66176;BME280;52977;44.816;20.538;2023-09-19T04:58:29;99475.91;;;21.21;71.56
66176;BME280;52977;44.816;20.538;2023-09-19T05:00:56;99487.03;;;21.17;71.81
66176;BME280;52977;44.816;20.538;2023-09-19T05:03:22;99479.09;;;21.23;71.73
66176;BME280;52977;44.816;20.538;2023-09-19T05:05:48;99473.13;;;21.21;71.82
66176;BME280;52977;44.816;20.538;2023-09-19T05:08:15;99443.47;;;20.89;71.97
66176;BME280;52977;44.816;20.538;2023-09-19T05:10:40;99485.84;;;21.11;71.63
66176;BME280;52977;44.816;20.538;2023-09-19T05:13:06;99504.47;;;21.28;71.67
66176;BME280;52977;44.816;20.538;2023-09-19T05:15:34;99511.19;;;21.27;71.82
66176;BME280;52977;44.816;20.538;2023-09-19T05:18:01;99516.34;;;21.29;71.91
66176;BME280;52977;44.816;20.538;2023-09-19T05:20:26;99460.13;;;20.92;72.04
66176;BME280;52977;44.816;20.538;2023-09-19T05:23:02;99495.31;;;21.28;72.12
66176;BME280;52977;44.816;20.538;2023-09-19T05:25:31;99490.19;;;21.30;72.49
66176;BME280;52977;44.816;20.538;2023-09-19T05:28:00;99469.19;;;21.14;72.18
66176;BME280;52977;44.816;20.538;2023-09-19T05:30:29;99500.47;;;21.33;71.95
66176;BME280;52977;44.816;20.538;2023-09-19T05:32:55;99504.44;;;21.36;72.07
66176;BME280;52977;44.816;20.538;2023-09-19T05:35:22;99470.38;;;21.21;71.99
66176;BME280;52977;44.816;20.538;2023-09-19T05:37:50;99480.25;;;21.29;71.82
66176;BME280;52977;44.816;20.538;2023-09-19T05:40:17;99477.88;;;21.34;71.79
66176;BME280;52977;44.816;20.538;2023-09-19T05:42:43;99464.00;;;21.27;71.89
66176;BME280;52977;44.816;20.538;2023-09-19T05:45:10;99464.38;;;21.37;72.08
66176;BME280;52977;44.816;20.538;2023-09-19T05:47:41;99462.41;;;21.26;71.94
66176;BME280;52977;44.816;20.538;2023-09-19T05:50:09;99472.72;;;21.37;72.11
66176;BME280;52977;44.816;20.538;2023-09-19T05:52:35;99384.88;;;20.69;72.61
66176;BME280;52977;44.816;20.538;2023-09-19T05:55:06;99487.81;;;21.28;72.89
66176;BME280;52977;44.816;20.538;2023-09-19T05:57:34;99477.09;;;21.27;72.64
66176;BME280;52977;44.816;20.538;2023-09-19T06:00:00;99477.50;;;21.32;72.63
66176;BME280;52977;44.816;20.538;2023-09-19T06:02:37;99437.50;;;21.12;72.78
66176;BME280;52977;44.816;20.538;2023-09-19T06:05:07;99382.09;;;20.79;72.46
66176;BME280;52977;44.816;20.538;2023-09-19T06:07:37;99379.28;;;20.65;72.49
66176;BME280;52977;44.816;20.538;2023-09-19T06:10:04;99480.63;;;21.34;72.28
66176;BME280;52977;44.816;20.538;2023-09-19T06:12:38;99416.13;;;20.94;72.05
66176;BME280;52977;44.816;20.538;2023-09-19T06:15:05;99469.50;;;21.42;71.91
66176;BME280;52977;44.816;20.538;2023-09-19T06:17:31;99467.91;;;21.44;71.77
66176;BME280;52977;44.816;20.538;2023-09-19T06:19:58;99494.91;;;21.55;71.35
66176;BME280;52977;44.816;20.538;2023-09-19T06:22:25;99481.44;;;21.53;71.04
66176;BME280;52977;44.816;20.538;2023-09-19T06:24:51;99485.72;;;21.61;70.86
66176;BME280;52977;44.816;20.538;2023-09-19T06:27:17;99474.66;;;21.58;70.72
66176;BME280;52977;44.816;20.538;2023-09-19T06:29:43;99435.06;;;21.28;70.33
66176;BME280;52977;44.816;20.538;2023-09-19T06:32:08;99470.66;;;21.62;70.52
66176;BME280;52977;44.816;20.538;2023-09-19T06:34:37;99466.72;;;21.53;70.66
66176;BME280;52977;44.816;20.538;2023-09-19T06:37:08;99493.59;;;21.81;70.21
66176;BME280;52977;44.816;20.538;2023-09-19T06:39:34;99460.75;;;21.61;69.85
66176;BME280;52977;44.816;20.538;2023-09-19T06:41:59;99484.03;;;21.89;69.68
66176;BME280;52977;44.816;20.538;2023-09-19T06:44:27;99493.50;;;21.99;69.63
66176;BME280;52977;44.816;20.538;2023-09-19T06:46:55;99504.63;;;22.02;69.65
66176;BME280;52977;44.816;20.538;2023-09-19T06:49:21;99475.38;;;21.76;69.59
66176;BME280;52977;44.816;20.538;2023-09-19T06:51:47;99526.44;;;22.04;69.56
66176;BME280;52977;44.816;20.538;2023-09-19T06:54:15;99502.28;;;21.94;69.88
66176;BME280;52977;44.816;20.538;2023-09-19T06:56:42;99477.28;;;21.90;70.04
66176;BME280;52977;44.816;20.538;2023-09-19T06:59:09;99508.47;;;22.19;71.37
66176;BME280;52977;44.816;20.538;2023-09-19T07:01:35;99478.41;;;22.00;70.56
66176;BME280;52977;44.816;20.538;2023-09-19T07:04:03;99502.06;;;22.33;69.89
66176;BME280;52977;44.816;20.538;2023-09-19T07:06:34;99500.06;;;22.38;69.91
66176;BME280;52977;44.816;20.538;2023-09-19T07:09:00;99504.44;;;22.39;69.91
66176;BME280;52977;44.816;20.538;2023-09-19T07:11:27;99501.66;;;22.39;69.58
66176;BME280;52977;44.816;20.538;2023-09-19T07:13:53;99500.88;;;22.34;69.23
66176;BME280;52977;44.816;20.538;2023-09-19T07:16:19;99418.63;;;21.77;69.56
66176;BME280;52977;44.816;20.538;2023-09-19T07:18:55;99526.28;;;22.40;69.88
66176;BME280;52977;44.816;20.538;2023-09-19T07:21:23;99465.25;;;22.11;69.93
66176;BME280;52977;44.816;20.538;2023-09-19T07:23:49;99525.34;;;22.58;70.30
66176;BME280;52977;44.816;20.538;2023-09-19T07:26:16;99525.31;;;22.61;69.69
66176;BME280;52977;44.816;20.538;2023-09-19T07:28:42;99464.34;;;22.29;69.66
66176;BME280;52977;44.816;20.538;2023-09-19T07:31:08;99471.09;;;22.28;69.79
66176;BME280;52977;44.816;20.538;2023-09-19T07:33:35;99528.44;;;22.70;69.88
66176;BME280;52977;44.816;20.538;2023-09-19T07:36:02;99486.50;;;22.47;69.55
66176;BME280;52977;44.816;20.538;2023-09-19T07:38:28;99523.25;;;22.73;69.36
66176;BME280;52977;44.816;20.538;2023-09-19T07:41:00;99487.63;;;22.57;69.54
66176;BME280;52977;44.816;20.538;2023-09-19T07:43:26;99517.22;;;22.81;69.34
66176;BME280;52977;44.816;20.538;2023-09-19T07:45:53;99525.53;;;22.85;69.33
66176;BME280;52977;44.816;20.538;2023-09-19T07:48:19;99525.09;;;22.90;69.35
66176;BME280;52977;44.816;20.538;2023-09-19T07:50:45;99520.75;;;22.85;69.24
66176;BME280;52977;44.816;20.538;2023-09-19T07:53:12;99478.03;;;22.61;69.42
66176;BME280;52977;44.816;20.538;2023-09-19T07:55:39;99533.00;;;22.95;69.53
66176;BME280;52977;44.816;20.538;2023-09-19T07:58:07;99540.53;;;22.98;69.63
66176;BME280;52977;44.816;20.538;2023-09-19T08:00:32;99549.25;;;23.00;69.86
66176;BME280;52977;44.816;20.538;2023-09-19T08:03:01;99519.88;;;22.96;69.43
66176;BME280;52977;44.816;20.538;2023-09-19T08:05:28;99535.66;;;23.10;69.33
66176;BME280;52977;44.816;20.538;2023-09-19T08:07:54;99538.84;;;23.12;69.23
66176;BME280;52977;44.816;20.538;2023-09-19T08:10:22;99514.63;;;23.05;69.02
66176;BME280;52977;44.816;20.538;2023-09-19T08:12:52;99545.94;;;23.20;68.72
66176;BME280;52977;44.816;20.538;2023-09-19T08:15:24;99551.13;;;23.18;68.80
66176;BME280;52977;44.816;20.538;2023-09-19T08:17:50;99556.56;;;23.32;68.80
66176;BME280;52977;44.816;20.538;2023-09-19T08:20:17;99549.72;;;23.41;68.37
66176;BME280;52977;44.816;20.538;2023-09-19T08:22:48;99521.72;;;23.17;68.15
66176;BME280;52977;44.816;20.538;2023-09-19T08:25:15;99551.66;;;23.47;68.49
66176;BME280;52977;44.816;20.538;2023-09-19T08:27:45;99552.84;;;23.46;68.19
66176;BME280;52977;44.816;20.538;2023-09-19T08:30:18;99545.28;;;23.47;68.42
66176;BME280;52977;44.816;20.538;2023-09-19T08:32:46;99527.47;;;23.37;68.43
66176;BME280;52977;44.816;20.538;2023-09-19T08:35:12;99538.13;;;23.46;68.70
66176;BME280;52977;44.816;20.538;2023-09-19T08:37:38;99527.00;;;23.46;68.42
66176;BME280;52977;44.816;20.538;2023-09-19T08:40:04;99553.19;;;23.52;68.11
66176;BME280;52977;44.816;20.538;2023-09-19T08:42:48;99559.41;;;23.63;68.55
66176;BME280;52977;44.816;20.538;2023-09-19T08:45:15;99534.09;;;23.50;68.58
66176;BME280;52977;44.816;20.538;2023-09-19T08:50:41;99561.69;;;23.76;69.11
66176;BME280;52977;44.816;20.538;2023-09-19T08:53:11;99554.50;;;23.75;68.80
66176;BME280;52977;44.816;20.538;2023-09-19T08:55:40;99557.31;;;23.75;68.69
66176;BME280;52977;44.816;20.538;2023-09-19T08:58:12;99500.03;;;23.35;69.16
66176;BME280;52977;44.816;20.538;2023-09-19T09:00:40;99567.25;;;23.76;68.85
66176;BME280;52977;44.816;20.538;2023-09-19T09:03:10;99561.25;;;23.77;69.37
66176;BME280;52977;44.816;20.538;2023-09-19T09:05:37;99550.19;;;23.70;69.43
66176;BME280;52977;44.816;20.538;2023-09-19T09:08:07;99503.25;;;23.34;69.13
66176;BME280;52977;44.816;20.538;2023-09-19T09:10:33;99557.03;;;23.65;69.31
66176;BME280;52977;44.816;20.538;2023-09-19T09:13:00;99516.72;;;23.39;69.18
66176;BME280;52977;44.816;20.538;2023-09-19T09:15:26;99556.88;;;23.76;69.40
66176;BME280;52977;44.816;20.538;2023-09-19T09:17:55;99552.88;;;23.81;69.49
66176;BME280;52977;44.816;20.538;2023-09-19T09:20:23;99549.59;;;23.86;69.49
66176;BME280;52977;44.816;20.538;2023-09-19T09:22:53;99538.03;;;23.91;69.80
66176;BME280;52977;44.816;20.538;2023-09-19T09:25:20;99521.38;;;23.84;69.74
66176;BME280;52977;44.816;20.538;2023-09-19T09:28:00;99542.66;;;24.01;69.85
66176;BME280;52977;44.816;20.538;2023-09-19T09:30:37;99451.75;;;23.49;69.94
66176;BME280;52977;44.816;20.538;2023-09-19T09:33:13;99482.91;;;23.71;70.03
66176;BME280;52977;44.816;20.538;2023-09-19T09:36:07;99536.50;;;24.17;69.93
66176;BME280;52977;44.816;20.538;2023-09-19T09:38:45;99539.28;;;24.17;69.54
66176;BME280;52977;44.816;20.538;2023-09-19T09:41:12;99542.06;;;24.17;69.62
66176;BME280;52977;44.816;20.538;2023-09-19T09:43:42;99534.88;;;24.20;69.29
66176;BME280;52977;44.816;20.538;2023-09-19T09:46:20;99530.41;;;24.26;69.67
66176;BME280;52977;44.816;20.538;2023-09-19T09:49:23;99535.88;;;24.33;69.06
66176;BME280;52977;44.816;20.538;2023-09-19T09:52:04;99544.50;;;24.43;69.46
66176;BME280;52977;44.816;20.538;2023-09-19T09:54:34;99504.13;;;24.23;69.60
66176;BME280;52977;44.816;20.538;2023-09-19T09:57:06;99530.09;;;24.48;69.38
66176;BME280;52977;44.816;20.538;2023-09-19T10:02:29;99455.00;;;24.06;70.02
66176;BME280;52977;44.816;20.538;2023-09-19T10:04:57;99539.66;;;24.74;70.20
66176;BME280;52977;44.816;20.538;2023-09-19T10:07:40;99531.38;;;24.70;70.45
66176;BME280;52977;44.816;20.538;2023-09-19T10:10:08;99545.81;;;24.89;69.50
66176;BME280;52977;44.816;20.538;2023-09-19T10:12:48;99541.78;;;24.94;67.77
66176;BME280;52977;44.816;20.538;2023-09-19T10:15:16;99526.22;;;24.93;67.94
66176;BME280;52977;44.816;20.538;2023-09-19T10:17:44;99544.31;;;25.08;68.03
66176;BME280;52977;44.816;20.538;2023-09-19T10:20:15;99539.59;;;25.05;68.04
66176;BME280;52977;44.816;20.538;2023-09-19T10:22:56;99544.00;;;25.02;68.82
66176;BME280;52977;44.816;20.538;2023-09-19T10:25:27;99543.50;;;25.07;69.47
66176;BME280;52977;44.816;20.538;2023-09-19T10:28:02;99541.22;;;25.02;69.44
66176;BME280;52977;44.816;20.538;2023-09-19T10:30:32;99530.22;;;24.91;69.29
66176;BME280;52977;44.816;20.538;2023-09-19T10:33:03;99542.91;;;24.96;69.31
66176;BME280;52977;44.816;20.538;2023-09-19T10:35:29;99486.47;;;24.61;69.32
66176;BME280;52977;44.816;20.538;2023-09-19T10:38:00;99530.66;;;24.90;69.46
66176;BME280;52977;44.816;20.538;2023-09-19T10:40:27;99521.13;;;24.87;69.57
66176;BME280;52977;44.816;20.538;2023-09-19T10:43:01;99520.69;;;24.89;69.89
66176;BME280;52977;44.816;20.538;2023-09-19T10:45:31;99519.00;;;24.95;69.55
66176;BME280;52977;44.816;20.538;2023-09-19T10:47:58;99511.38;;;24.99;69.37
66176;BME280;52977;44.816;20.538;2023-09-19T10:50:24;99488.09;;;24.82;69.37
66176;BME280;52977;44.816;20.538;2023-09-19T10:52:54;99407.97;;;24.35;69.29
66176;BME280;52977;44.816;20.538;2023-09-19T10:55:31;99513.66;;;25.04;69.18
66176;BME280;52977;44.816;20.538;2023-09-19T10:57:58;99475.31;;;24.85;69.80
66176;BME280;52977;44.816;20.538;2023-09-19T11:00:57;99496.13;;;25.04;69.09
66176;BME280;52977;44.816;20.538;2023-09-19T11:03:31;99495.34;;;25.03;69.12
66176;BME280;52977;44.816;20.538;2023-09-19T11:06:03;99496.13;;;25.04;69.09
66176;BME280;52977;44.816;20.538;2023-09-19T11:08:51;99487.66;;;25.07;69.60
66176;BME280;52977;44.816;20.538;2023-09-19T11:11:49;99492.00;;;25.12;69.24
66176;BME280;52977;44.816;20.538;2023-09-19T11:30:40;99478.72;;;25.60;68.07
66176;BME280;52977;44.816;20.538;2023-09-19T11:33:23;99477.34;;;25.68;66.46
66176;BME280;52977;44.816;20.538;2023-09-19T11:36:09;99480.00;;;25.75;66.27
66176;BME280;52977;44.816;20.538;2023-09-19T11:49:28;99496.69;;;25.59;66.31
66176;BME280;52977;44.816;20.538;2023-09-19T11:51:56;99495.41;;;25.44;67.01
66176;BME280;52977;44.816;20.538;2023-09-19T11:54:23;99425.06;;;24.85;67.79
66176;BME280;52977;44.816;20.538;2023-09-19T11:56:54;99484.69;;;25.18;68.17
66176;BME280;52977;44.816;20.538;2023-09-19T11:59:22;99436.53;;;24.90;67.87
66176;BME280;52977;44.816;20.538;2023-09-19T12:01:53;99473.00;;;25.03;68.32
66176;BME280;52977;44.816;20.538;2023-09-19T12:04:44;99486.34;;;24.92;68.85
66176;BME280;52977;44.816;20.538;2023-09-19T12:07:15;99478.53;;;24.83;68.95
66176;BME280;52977;44.816;20.538;2023-09-19T12:09:42;99477.94;;;24.72;69.26
66176;BME280;52977;44.816;20.538;2023-09-19T12:12:25;99439.25;;;24.47;69.94
66176;BME280;52977;44.816;20.538;2023-09-19T12:14:55;99483.06;;;24.73;70.09
66176;BME280;52977;44.816;20.538;2023-09-19T12:17:38;99461.41;;;24.57;70.29
66176;BME280;52977;44.816;20.538;2023-09-19T12:20:05;99492.66;;;24.72;70.11
66176;BME280;52977;44.816;20.538;2023-09-19T12:22:44;99487.94;;;24.69;70.00
66176;BME280;52977;44.816;20.538;2023-09-19T12:25:12;99501.34;;;24.78;69.67
66176;BME280;52977;44.816;20.538;2023-09-19T12:27:58;99461.81;;;24.56;69.95
66176;BME280;52977;44.816;20.538;2023-09-19T12:30:28;99466.19;;;24.81;69.30
66176;BME280;52977;44.816;20.538;2023-09-19T12:32:59;99450.78;;;24.72;69.25
66176;BME280;52977;44.816;20.538;2023-09-19T12:35:32;99488.22;;;24.99;69.39
66176;BME280;52977;44.816;20.538;2023-09-19T12:38:02;99486.59;;;25.01;69.25
66176;BME280;52977;44.816;20.538;2023-09-19T12:40:29;99484.22;;;25.00;69.67
66176;BME280;52977;44.816;20.538;2023-09-19T12:42:59;99444.38;;;24.76;69.59
66176;BME280;52977;44.816;20.538;2023-09-19T12:45:32;99487.78;;;25.00;69.96
66176;BME280;52977;44.816;20.538;2023-09-19T12:48:25;99503.34;;;25.01;70.51
66176;BME280;52977;44.816;20.538;2023-09-19T12:51:03;99500.97;;;25.00;70.24
66176;BME280;52977;44.816;20.538;2023-09-19T12:53:45;99500.97;;;25.00;70.69
66176;BME280;52977;44.816;20.538;2023-09-19T12:56:18;99489.81;;;25.00;70.41
66176;BME280;52977;44.816;20.538;2023-09-19T12:58:57;99498.53;;;25.02;69.83
66176;BME280;52977;44.816;20.538;2023-09-19T13:01:35;99503.72;;;25.03;69.93
66176;BME280;52977;44.816;20.538;2023-09-19T13:04:21;99515.06;;;25.16;71.34
66176;BME280;52977;44.816;20.538;2023-09-19T13:07:39;99525.16;;;25.54;69.16
66176;BME280;52977;44.816;20.538;2023-09-19T13:10:25;99516.78;;;25.54;70.23
66176;BME280;52977;44.816;20.538;2023-09-19T13:13:23;99474.00;;;25.37;69.54
66176;BME280;52977;44.816;20.538;2023-09-19T13:16:08;99547.72;;;25.63;70.58
66176;BME280;52977;44.816;20.538;2023-09-19T13:18:55;99451.69;;;25.13;71.11
66176;BME280;52977;44.816;20.538;2023-09-19T13:21:40;99514.53;;;25.45;71.20
66176;BME280;52977;44.816;20.538;2023-09-19T13:24:29;99510.63;;;25.42;71.93
66176;BME280;52977;44.816;20.538;2023-09-19T13:27:14;99526.22;;;25.60;70.89
66176;BME280;52977;44.816;20.538;2023-09-19T13:30:00;99530.16;;;25.63;70.46
66176;BME280;52977;44.816;20.538;2023-09-19T13:32:46;99493.75;;;25.46;70.66
66176;BME280;52977;44.816;20.538;2023-09-19T13:35:31;99482.78;;;25.35;71.23
66176;BME280;52977;44.816;20.538;2023-09-19T13:38:17;99506.44;;;25.51;70.69
66176;BME280;52977;44.816;20.538;2023-09-19T13:40:43;99459.75;;;25.07;69.86
66176;BME280;52977;44.816;20.538;2023-09-19T13:43:29;99484.09;;;25.07;70.05
66176;BME280;52977;44.816;20.538;2023-09-19T13:46:15;99535.63;;;25.26;70.83
66176;BME280;52977;44.816;20.538;2023-09-19T13:48:42;99517.56;;;25.11;70.91
66176;BME280;52977;44.816;20.538;2023-09-19T13:51:07;99530.28;;;25.12;71.50
66176;BME280;52977;44.816;20.538;2023-09-19T13:53:33;99528.00;;;25.06;71.44
66176;BME280;52977;44.816;20.538;2023-09-19T13:55:59;99484.66;;;24.74;71.88